Anchorage, AK

10:05 PM AKDT on July 06, 2015 (GMT -0800)
Anchorage | | Change Station
CLOSE
Current Station
Airport
Location: Anchorage,
Elevation: 144 ft
Nearby Weather Stations

Elev 144 ft 61.17 °N, 150.03 °W | Updated 12 minutes ago

Overcast
Overcast
69 °F
Feels Like 69 °F
N
18
Wind Variable Wind from SSE
Gusts 30 mph

Today
High -- | Low -- °F
--% Chance of Precip.
Yesterday
High -- | Low -- °F
Precip. -- in
4:35 AM 11:33 PM
Waning Gibbous, 68% visible
Pressure 29.93 in
Visibility 10.0 miles
Clouds Few 5000 ft
Scattered Clouds 7500 ft
Mostly Cloudy 10000 ft
Overcast 20000 ft
Dew Point 51 °F
Humidity 53%
Rainfall 0.00 in
Snow Depth Not available.
UV 0 out of 12
Pollen Not available.
Air Quality Not available.
Flu Activity Not available.
METAR PANC 070553Z 15016G26KT 10SM FEW050 SCT075 BKN100 OVC200 21/11 A2993 RMK AO2 PK WND 16028/0535 RAE24 SLP133 SH DSNT NW-NE P0000 60000 T02060106 10233 20194 58005

More Conditions Fewer Conditions

Pressure 29.93 in
Visibility 10.0 miles
Clouds Few 5000 ft
Scattered Clouds 7500 ft
Mostly Cloudy 10000 ft
Overcast 20000 ft
Dew Point 51 °F
Humidity 53%
Rainfall 0.00 in
Snow Depth Not available.
UV 0 out of 12
Pollen Not available.
Air Quality Not available.
Flu Activity Not available.
METAR PANC 070553Z 15016G26KT 10SM FEW050 SCT075 BKN100 OVC200 21/11 A2993 RMK AO2 PK WND 16028/0535 RAE24 SLP133 SH DSNT NW-NE P0000 60000 T02060106 10233 20194 58005

More Conditions Fewer Conditions

10-Day Weather Forecast

×

Almanac

Astronomy

Jul. 06, 2015 Rise Set
Actual Time
Civil Twilight
Nautical Twilight
Astronomical Twilight
Moon
Length of Visible Light
Length of Day
Tomorrow will be .
, % of the Moon is Illuminated

Today's Extremes

State Highs State Lows

Community

WunderPhotos

Upload Photos

1,835,740 photos uploaded!

WunderBlogs® & News

Nearby

Air Quality

  Air Quality AQ Index Pollutant
Not available.

Snow Depth

Station Depth Elevation

Earthquake Activity

City Distance Mag. Time & Date
Minimum magnitude displayed is 2.5.

Coastal Water Temperatures

Place Temperature

Stations

Nearby Weather Stations

Station Location Temp. Windchill Dew Point Humidity Wind Precip. Elev Updated Type